航空気象通報

ウインドサーファーのための航空気象通報による風予報です。

8/31-9/1の航空気象通報

2016年08月31日 23時51分30秒 | TAF

羽田空港
TAF RJTT 311105Z 3112/0118 20014KT 9999 FEW030
BECMG 3119/3121 30004KT
BECMG 3122/3124 08008KT
BECMG 0100/0103 18016KT
BECMG 0112/0115 21006KT
日本時間31日21時-1日04時:040度から14ノットの風
04-06時:風が変化
06-07時:300度から4ノットの風
07-09時:風が変化
09時:080度から8ノットの風
09-12時:風が変化
12-21時:180度から16ノットの風
21-24時:風が変化
2日00-03時:210度から6ノットの風

静岡空港
TAF RJNS 311105Z 3112/0118 29005KT 9999 FEW015 BKN030
BECMG 0100/0103 20008KT
BECMG 0109/0112 32004KT
日本時間31日21時-1日09時:290度から5ノットの風
09-12時:風が変化
12-18時:200度から8ノットの風
18-21時:風が変化
21時-2日03時:320度から4ノットの風

福岡空港
TAF RJFF 311106Z 3112/0118 15010KT 9999 FEW035
日本時間31日21時-2日03時:150度から10ノットの風

那覇空港
TAF ROAH 311109Z 3112/0118 08005KT 9999 FEW030
BECMG 3114/3116 13006KT
BECMG 3120/3122 04012KT
TEMPO 0100/0106 4000 SHRA FEW008 BKN015 FEW020CB
日本時間31日21-23時:080度から5ノットの風
23時-1日01時:風が変化
01-05時:130度から6ノットの風
05-07時:風が変化
07-2日03時:040度から12ノットの風

但し、1日09-15時の間:ときどき

石垣空港
TAF ROIG 311111Z 3112/0118 02006KT 9999 FEW025 SCT045
BECMG 0112/0115 16005KT
日本時間31日21時-1日21時:020度から6ノットの風
21-24時:風が変化
2日00-03時:160度から6ノットの風

マウイのカフルイ空港
PHOG 311139Z 3112/0112 06015G25KT P6SM VCSH SCT015 BKN025 OVC070
FM311900 05017G25KT P6SM VCSH SCT025 BKN045
FM312300 05025G34KT P6SM VCSH SCT025 BKN045 AMD LTD TO VIS AND WIND TIL 311600
ハワイ時間31日02-09時:060度から15ノット、突風25ノット
09-13時:050度から17ノット、突風25ノット
13時-1日02時:050度から25ノット、突風34ノット

サイパン空港
TAF PGSN 311127Z 3112/0112 32006KT P6SM VCSH FEW018 SCT050
マリアナ時間31日22時-1日22時:320度から6ノットの風

コメント

8/30-9/1の航空気象通報

2016年08月30日 23時06分50秒 | TAF

羽田空港
TAF RJTT 301105Z 3012/3118 22018KT 9999 FEW020
TEMPO 3100/3109 20022G32KT
日本時間30日21時-1日03時:220度から18ノットの風
但し、31日09-18時の間:ときどき200度から22ノット、突風32ノット

静岡空港
TAF RJNS 301105Z 3012/3118 30005KT 9999 FEW015 SCT030
BECMG 3022/3024 22012KT
BECMG 3112/3115 30005KT
日本時間30日21時-31日07時:300度から5ノットの風
07-09時:風が変化
09-21時:220度から12ノットの風
21-24時:風が変化
1日00-03時:300度から5ノットの風

福岡空港
TAF RJFF 301107Z 3012/3118 25013KT 9999 FEW030 SCT040
BECMG 3014/3016 22008KT
TEMPO 3100/3109 23015G28KT
日本時間30日21-23時:250度から13ノットの風
23時-31日01時:風が変化
01時-1日03時:220度から8ノットの風
但し、31日09-18時の間:ときどき230度から15ノット、突風28ノット

那覇空港
TAF ROAH 301106Z 3012/3118 30011KT 9999 FEW030
BECMG 3103/3106 19006KT
日本時間30日21時-31日12時:300度から11ノットの風
12-15時:風が変化
15時-1日03時:190度から6ノットの風

石垣空港
TAF ROIG 301110Z 3012/3118 33003KT 9999 FEW030
BECMG 3103/3106 06015KT
BECMG 3115/3118 36009KT
日本時間30日21時-31日12時:330度から3ノットの風
12-15時:風が変化
15-24時:060度から15ノットの風
00-03時:風が変化
03時:360度から9ノットの風

マウイのカフルイ空港
PHOG 301136Z 3012/3112 05011KT P6SM FEW035 SCT060
FM301900 04017G27KT P6SM FEW030 SCT060
FM302200 03018G30KT P6SM VCSH SCT030 BKN050 AMD LTD TO VIS AND WIND TIL 301600
ハワイ時間30日02-09時:050度から11ノットの風
09-12時:040度から17ノット、突風27ノット
12時-31日02時:030度から18ノット、突風30ノット

サイパン空港
TAF PGSN 301128Z 3012/3112 34005KT P6SM VCSH SCT018 BKN110
マリアナ時間30日22時-31日22時:340度から5ノットの風

コメント

8/29-8/31の航空気象通報

2016年08月29日 23時47分12秒 | TAF

羽田空港
TAF RJTT 291106Z 2912/3018 02020KT 9999 FEW008 BKN012
TEMPO 2916/2919 4000 -SHRA BR FEW005 BKN008
TEMPO 2919/2922 3000 +SHRA BR FEW005 BKN008
TEMPO 2922/2924 33030G40KT 3000 +SHRA BR FEW005 BKN008
TEMPO 3000/3003 33028G38KT 4000 -SHRA BR FEW005 BKN008
BECMG 3003/3006 22016KT
日本時間29日21時-30日12時:020度から20ノットの風
但し、30日01-09時の間:ときどき330度から30ノット、突風40ノット
但し、30日09-12時の間:ときどき330度から28ノット、突風38ノット
12-15時:風が変化
15時-31日03時:220度から16ノットの風

但し、30日01-12時の間:ときどき

静岡空港
TAF RJNS 291105Z 2912/3018 28012KT 9999 FEW015 BKN020
TEMPO 2917/2921 4000 SHRA BR FEW005 BKN008
TEMPO 2921/2924 3000 SHRA BR FEW003 BKN005
TEMPO 3000/3009 26025G35KT
日本時間29日21時-31日03時:280度から12ノットの風
但し、30日09-18時の間:ときどき260度から25ノット、突風35ノット

但し、30日02-09時の間:ときどき

福岡空港
TAF AMD RJFF 291346Z 2913/3018 16005KT 8000 -SHRA FEW030 BKN040
TEMPO 2913/2918 3000 TSRA BR FEW015 FEW020CB SCT025 BKN035
BECMG 3000/3003 25015KT
TEMPO 3000/3003 27016G28KT 4000 SHRA BR
TEMPO 3003/3009 25017G30KT
日本時間29日21時-30日09時:160度から5ノットの風
09-12時:風が変化
12時-31日03時:250度から15ノットの風
但し、30日09-12時の間:ときどき270度から16ノット、突風28ノット
但し、30日12-18時の間:ときどき250度から17ノット、突風30ノット

但し、29日22時-30日03時の間:ときどき

那覇空港
TAF ROAH 291106Z 2912/3018 34011KT 9999 FEW030 SCT045
日本時間29日21時-31日03時:340度から11ノットの風

石垣空港
TAF ROIG 291108Z 2912/3018 35005KT 9999 FEW030 SCT045
日本時間29日21時-31日03時:350度から5ノットの風

マウイのカフルイ空港
PHOG 291428Z 2914/3012 03013KT P6SM FEW040 BKN080
FM291800 06016KT P6SM FEW040 SCT080
FM292200 06019G25KT P6SM SCT060
FM300600 06013KT P6SM FEW060
ハワイ時間29日02-08時:030度から13ノットの風

08-12時:060度から16ノットの風
12-20時:060度から19ノット、突風25ノット
20時-30日02時:060度から13ノットの風

サイパン空港
TAF PGSN 291120Z 2912/3012 VRB03KT P6SM VCSH FEW020 SCT110
FM300100 26007KT P6SM VCSH SCT020 SCT050
マリアナ時間29日22時-30日11時:風向不定3ノットの風
11-22時:260度から7ノットの風

コメント

8/28-8/30の航空気象通報

2016年08月28日 23時39分14秒 | TAF

羽田空港
TAF RJTT 281105Z 2812/2918 04014KT 8000 FEW008 BKN012
TEMPO 2812/2821 FEW005 BKN008
BECMG 2909/2912 02025KT
日本時間28日21時-29日18時:040度から14ノットの風
18-21時:風が変化
21時-30日03時:020度から25ノットの風

静岡空港
TAF RJNS 281105Z 2812/2918 06012KT 9999 FEW010 BKN025
TEMPO 2900/2906 06016G28KT
BECMG 2912/2915 27010KT
日本時間28日21時-29日21時:060度から12ノットの風
21-24時:風が変化
30日00-03時:270度から10ノットの風

福岡空港
TAF RJFF 281113Z 2812/2918 33015KT 7000 -SHRA FEW005 SCT010 BKN020
TEMPO 2812/2815 33018G30KT 4000 -SHRA BR FEW005 BKN008 BKN020
TEMPO 2815/2821 33018G30KT 3000 SHRA BR FEW005 BKN008 BKN020
TEMPO 2821/2903 31018G28KT 4000 -SHRA BR
TEMPO 2903/2909 31015G25KT
日本時間28日21時-30日03時:330度から15ノットの風
但し、28日21時-29日06時の間:ときどき330度から18ノット、突風30ノット
但し、30日06-12時の間:ときどき310度から18ノット、突風28ノット
但し、30日12-18時の間:ときどき310度から18ノット、突風25ノット

那覇空港
TAF ROAH 281105Z 2812/2918 33019KT 9999 FEW030
BECMG 2912/2915 33008KT
日本時間28日21時-29日21時:330度から19ノットの風
21-24時:風が変化
30日00-03時:330度から8ノットの風

石垣空港TAF ROIG 281107Z 2812/2918 36009KT 9999 FEW025 SCT040
日本時間28日21時-30日03時:360度から9ノットの風

マウイのカフルイ空港
PHOG 281132Z 2812/2912 05010KT P6SM VCSH FEW025 BKN045 OVC070
FM282000 05016G22KT P6SM SCT045 BKN070
FM290800 05010KT P6SM SCT045 BKN070 AMD LTD TO VIS AND WIND TIL 281600
ハワイ時間28日02-10時:050度から10ノットの風
10-22時:050度から16ノット、突風22ノット
22時-29日02時:050度から10ノットの風

サイパン空港
TAF PGSN 281120Z 2812/2912 24005KT P6SM VCSH SCT022 SCT050
マリアナ時間28日22時-29日22時:240度から5ノットの風

コメント

8/27-8/29の航空気象通報

2016年08月27日 22時10分44秒 | TAF

羽田空港
TAF RJTT 271105Z 2712/2818 03014KT 9999 FEW008 BKN015
TEMPO 2718/2722 FEW005 BKN008
日本時間27日21時-29日03時:030度から14ノットの風

静岡空港
TAF RJNS 271105Z 2712/2818 04006KT 8000 FEW010 BKN020
TEMPO 2712/2715 3000 SHRA BR FEW003 BKN005
日本時間27日21時-29日03時:040度から6ノットの風

但し、27日21-24時の間:ときどき

福岡空港
TAF RJFF 271113Z 2712/2818 02007KT 9999 FEW020 SCT040
BECMG 2714/2716 14005KT
TEMPO 2800/2803 4000 -SHRA BR
TEMPO 2803/2809 17019G29KT 3000 TSRA BR FEW008 SCT015 BKN030 FEW030CB
BECMG 2809/2812 30017KT
TEMPO 2809/2815 30017G27KT 3000 SHRA BR FEW006 BKN008 BKN025
日本時間27日21-23時:020度から7ノットの風
23時-28日01時:風が変化
01-18時:140度から5ノットの風
但し、12-18時の間:ときどき170度から19ノット、突風29ノット
18-21時:風が変化
21時-29日03時:300度から17ノットの風
但し、28日18-24時の間:ときどき300度から17ノット、突風27ノット

但し、28日09-12時の間:ときどき
但し、28日12-18時の間:ときどき
但し、28日18-24時の間:ときどき

那覇空港
TAF ROAH 271105Z 2712/2818 36012KT 9999 FEW020
日本時間27日21時-29日03時:360度から12ノットの風

石垣空港
TAF ROIG 271107Z 2712/2818 34005KT 9999 FEW015 SCT025
日本時間27日21時-29日03時:340度から5ノットの風

マウイのカフルイ空港
PHOG 271147Z 2712/2812 05010KT P6SM FEW030 SCT060
FM272000 04017G25KT P6SM FEW030 SCT060
FM280500 05011KT P6SM SCT030 SCT060 AMD LTD TO VIS AND WIND TIL 271600
ハワイ時間27日02-10時:050度から10ノットの風
10-19時:040度から17ノット、突風25ノット
19時-28日02時:050度から11ノットの風

サイパン空港
TAF PGSN 271120Z 2712/2812 VRB04KT P6SM FEW025 FEW060
FM280200 VRB06KT P6SM VCSH SCT020 SCT050
マリアナ時間27日22時-28日12時:風向不定4ノットの風
12-22時:風向不定6ノットの風

コメント